Ville De Bordeaux — FZCE — position and weather

sailwx.info

Track history (hours):
 
Tides and Currents Weather Stations Pressure Air Temp Water Temp Dewpoint Dewpoint Depression Visibility Wind Speed Wind Dir Waves Ship Positions

Ville De Bordeaux

Last reported at 2017-Jun-27 12:01 UTC. Time now 2017-Jun-27 12:23 UTC.
Position N 38°49' W 009°52'.

Length 150 m; beam 24 m.

Type: Ship. MMSI: 228084000.

Date/timePositionNaut miles runAvg speedWind from/ knotsBaromVisibWave heightAir tempDewpointWater temp
2017-Jun-27 12:01N 38°49' W 009°52'917.0
2017-Jun-27 11:30N 38°41' W 009°51'817.0
2017-Jun-27 11:00N 38°32' W 009°48'816.7
2017-Jun-27 10:30N 38°24' W 009°45'816.8
2017-Jun-27 10:00N 38°16' W 009°42'916.4
2017-Jun-27 09:29N 38°08' W 009°40'15414.5
2017-Jun-26 22:49N 36°36' W 007°04'1717.5
2017-Jun-26 21:52N 36°35' W 006°43'1317.7
2017-Jun-26 21:08N 36°34' W 006°27'58 4.9
2017-Jun-26 09:17N 36°00' W 005°28'415.7
2017-Jun-26 09:00N 36°01' W 005°23'816.1
2017-Jun-26 08:30N 36°02' W 005°13'17017.8
2017-Jun-25 22:55N 36°30' W 001°45'818.4
2017-Jun-25 22:30N 36°32' W 001°36'4218.7
2017-Jun-25 20:14N 36°41' W 000°44'518.8
2017-Jun-25 19:59N 36°42' W 000°39'1119.0
2017-Jun-25 19:24N 36°45' W 000°25'1119.1
2017-Jun-25 18:50N 36°47' W 000°12'618.8
2017-Jun-25 18:30N 36°48' W 000°04'918.7
2017-Jun-25 18:00N 36°50' E 000°07'918.7
2017-Jun-25 17:30N 36°52' E 000°19'918.6
2017-Jun-25 17:00N 36°54' E 000°30'918.8
2017-Jun-25 16:30N 36°56' E 000°42'918.9
2017-Jun-25 16:00N 36°58' E 000°53'1118.9
2017-Jun-25 15:26N 37°01' E 001°06'1219.0
2017-Jun-25 14:49N 37°03' E 001°21'1619.4
2017-Jun-25 14:00N 37°06' E 001°40'1019.6
2017-Jun-25 13:30N 37°08' E 001°52'1019.5
2017-Jun-25 13:00N 37°10' E 002°04'2619.0
2017-Jun-25 11:38N 37°15' E 002°36'518.9
2017-Jun-25 11:23N 37°16' E 002°42'6218.7
2017-Jun-25 08:05N 37°33' E 003°56'218.9
2017-Jun-25 08:00N 37°33' E 003°58'1018.9
2017-Jun-25 07:29N 37°34' E 004°11'918.9
2017-Jun-25 07:00N 37°35' E 004°22'1019.0
2017-Jun-25 06:30N 37°37' E 004°34'1019.0
2017-Jun-25 05:59N 37°39' E 004°46'1019.4
2017-Jun-25 05:30N 37°40' E 004°58'1019.6
2017-Jun-25 05:00N 37°40' E 005°10'919.3
2017-Jun-25 04:30N 37°40' E 005°22'1019.1
2017-Jun-25 04:00N 37°40' E 005°35'918.9
2017-Jun-25 03:30N 37°40' E 005°46'1018.7
2017-Jun-25 02:57N 37°40' E 005°60'17718.5
2017-Jun-24 17:24N 37°38' E 009°43'818.5
2017-Jun-24 16:59N 37°38' E 009°52'918.6
2017-Jun-24 16:30N 37°38' E 010°03'917.1
2017-Jun-24 15:58N 37°36' E 010°15'2217.8
2017-Jun-24 14:44N 37°16' E 010°25'918.5
2017-Jun-24 14:16N 37°07' E 010°25'45 3.0
2017-Jun-23 23:12N 37°35' E 011°09'210.8
2017-Jun-23 23:00N 37°37' E 011°10'1010.8
2017-Jun-23 22:03N 37°45' E 011°17'010.6
2017-Jun-23 22:00N 37°46' E 011°18'510.5
2017-Jun-23 21:30N 37°50' E 011°22'7310.5
2017-Jun-23 14:32N 38°48' E 012°18'610.9
2017-Jun-23 14:00N 38°53' E 012°23'7311.0
2017-Jun-23 07:21N 39°52' E 013°20'1710.9
2017-Jun-23 05:48N 40°05' E 013°33'511.1
2017-Jun-23 05:22N 40°09' E 013°37'411.3
2017-Jun-23 05:00N 40°12' E 013°40'611.2
2017-Jun-23 04:27N 40°17' E 013°45'511.2
2017-Jun-23 04:00N 40°21' E 013°49'611.1
2017-Jun-23 03:30N 40°25' E 013°54'1510.9
2017-Jun-23 02:08N 40°38' E 014°05'110.6
2017-Jun-23 02:00N 40°39' E 014°06'12 9.8
2017-Jun-23 00:50N 40°48' E 014°15'3 0.5
2017-Jun-22 19:34N 40°50' E 014°17'0 0.0
2017-Jun-22 19:28N 40°50' E 014°17'0 0.0
2017-Jun-22 18:58N 40°50' E 014°17'0 0.0
2017-Jun-22 18:28N 40°50' E 014°17'0 0.3
2017-Jun-22 18:00N 40°50' E 014°17'2 4.4
2017-Jun-22 17:30N 40°48' E 014°17'1 1.3
2017-Jun-22 17:00N 40°48' E 014°16'612.6
2017-Jun-22 16:30N 40°44' E 014°09'815.0
2017-Jun-22 16:00N 40°40' E 014°01'1915.0
2017-Jun-22 14:44N 40°33' E 013°38'315.4
2017-Jun-22 14:31N 40°31' E 013°34'1915.8
2017-Jun-22 13:20N 40°23' E 013°12'816.0
2017-Jun-22 12:49N 40°19' E 013°02'715.8
2017-Jun-22 12:24N 40°16' E 012°55'615.7
2017-Jun-22 12:00N 40°13' E 012°47'6415.9
2017-Jun-22 07:58N 39°45' E 011°32'715.9
2017-Jun-22 07:30N 39°41' E 011°24'815.8
2017-Jun-22 07:00N 39°38' E 011°15'815.9
2017-Jun-22 06:30N 39°34' E 011°05'3916.5
2017-Jun-22 04:10N 39°17' E 010°21'316.5
2017-Jun-22 04:00N 39°16' E 010°18'916.5
2017-Jun-22 03:29N 39°12' E 010°08'816.4
2017-Jun-22 03:01N 39°08' E 009°59'2516.6
2017-Jun-22 01:30N 38°57' E 009°29'916.8
2017-Jun-22 00:56N 38°54' E 009°18'816.6
2017-Jun-22 00:28N 38°52' E 009°08'1016.3
2017-Jun-21 23:51N 38°48' E 008°56'616.3
2017-Jun-21 23:30N 38°47' E 008°49'21912.9
2017-Jun-21 06:31N 37°49' E 004°20'0 9.6
2017-Jun-21 06:29N 37°49' E 004°20'5 9.7
2017-Jun-21 06:00N 37°47' E 004°14'5 9.6
2017-Jun-21 05:30N 37°46' E 004°09'7 9.6
2017-Jun-21 04:50N 37°44' E 004°01'3 9.6
2017-Jun-21 04:30N 37°43' E 003°57'5 9.5
2017-Jun-21 04:00N 37°42' E 003°51'5 9.5
2017-Jun-21 03:30N 37°41' E 003°45'6 9.4
2017-Jun-21 02:52N 37°39' E 003°38'20 9.5
2017-Jun-21 00:48N 37°34' E 003°14'4 9.6
2017-Jun-21 00:21N 37°33' E 003°09'8 9.5
2017-Jun-20 23:29N 37°30' E 002°59'33 9.2
2017-Jun-20 19:55N 37°22' E 002°19'33 9.0
2017-Jun-20 16:12N 37°13' E 001°38'2 9.0
2017-Jun-20 15:57N 37°12' E 001°36'36 9.4
2017-Jun-20 12:07N 37°03' E 000°52'110.2
2017-Jun-20 11:59N 37°02' E 000°51'910.4
2017-Jun-20 11:09N 37°00' E 000°40'1510.2
2017-Jun-20 09:43N 36°56' E 000°23'1010.1
2017-Jun-20 08:41N 36°53' E 000°10'2 9.9
2017-Jun-20 08:26N 36°53' E 000°07'26311.2
2017-Jun-19 09:01N 35°59' W 005°13'016.1
2017-Jun-19 09:00N 35°59' W 005°13'816.1
2017-Jun-19 08:30N 35°58' W 005°23'110 6.4
2017-Jun-18 15:16N 36°11' W 007°38'5015.3
2017-Jun-18 12:01N 36°25' W 008°38'015.8
2017-Jun-18 12:00N 36°25' W 008°38'1315.3
2017-Jun-18 11:09N 36°28' W 008°53'215.2
2017-Jun-18 11:00N 36°29' W 008°56'915.2
2017-Jun-18 10:27N 36°31' W 009°06'715.4
2017-Jun-18 10:00N 36°33' W 009°15'6315.5
2017-Jun-18 05:56N 37°31' W 009°46'716.6
2017-Jun-18 05:30N 37°38' W 009°48'816.8
2017-Jun-18 05:01N 37°46' W 009°50'816.8
2017-Jun-18 04:30N 37°54' W 009°53'816.7
2017-Jun-18 04:01N 38°02' W 009°55'816.9
2017-Jun-18 03:31N 38°10' W 009°57'816.8
2017-Jun-18 03:01N 38°19' W 009°59'816.8
2017-Jun-18 02:31N 38°27' W 010°01'816.6
2017-Jun-18 02:01N 38°35' W 010°04'816.6
2017-Jun-18 01:31N 38°43' W 010°05'816.7
2017-Jun-18 01:00N 38°52' W 010°05'816.7
2017-Jun-18 00:30N 39°00' W 010°05'917.3
2017-Jun-18 00:01N 39°09' W 010°05'917.2
2017-Jun-17 23:31N 39°17' W 010°05'916.6
2017-Jun-17 23:00N 39°26' W 010°05'1116.5
2017-Jun-17 22:20N 39°37' W 010°05'516.5
2017-Jun-17 22:00N 39°42' W 010°05'1217.1
2017-Jun-17 21:18N 39°54' W 010°05'515.9
2017-Jun-17 21:00N 39°59' W 010°05'816.9
2017-Jun-17 20:30N 40°07' W 010°05'816.9
2017-Jun-17 20:01N 40°16' W 010°04'916.9
2017-Jun-17 19:30N 40°24' W 010°04'917.0
2017-Jun-17 19:00N 40°33' W 010°05'816.9
2017-Jun-17 18:30N 40°41' W 010°06'816.8
2017-Jun-17 18:00N 40°49' W 010°06'916.7
2017-Jun-17 17:30N 40°58' W 010°06'816.9
2017-Jun-17 17:00N 41°06' W 010°05'816.9
2017-Jun-17 16:30N 41°15' W 010°05'917.1
2017-Jun-17 16:00N 41°23' W 010°05'917.3
2017-Jun-17 15:30N 41°32' W 010°05'  
Track history (hours):
 
Tides and Currents Weather Stations Pressure Air Temp Water Temp Dewpoint Dewpoint Depression Visibility Wind Speed Wind Dir Waves Ship Positions

Ville De Bordeaux

Last reported at 2017-Jun-27 12:01 UTC. Time now 2017-Jun-27 12:23 UTC.
Position N 38°49' W 009°52'.

Length 150 m; beam 24 m.

Type: Ship. MMSI: 228084000.

Date/timePositionNaut miles runAvg speedWind from/ knotsBaromVisibWave heightAir tempDewpointWater temp
2017-Jun-27 12:01N 38°49' W 009°52'917.0
2017-Jun-27 11:30N 38°41' W 009°51'817.0
2017-Jun-27 11:00N 38°32' W 009°48'816.7
2017-Jun-27 10:30N 38°24' W 009°45'816.8
2017-Jun-27 10:00N 38°16' W 009°42'916.4
2017-Jun-27 09:29N 38°08' W 009°40'15414.5
2017-Jun-26 22:49N 36°36' W 007°04'1717.5
2017-Jun-26 21:52N 36°35' W 006°43'1317.7
2017-Jun-26 21:08N 36°34' W 006°27'58 4.9
2017-Jun-26 09:17N 36°00' W 005°28'415.7
2017-Jun-26 09:00N 36°01' W 005°23'816.1
2017-Jun-26 08:30N 36°02' W 005°13'17017.8
2017-Jun-25 22:55N 36°30' W 001°45'818.4
2017-Jun-25 22:30N 36°32' W 001°36'4218.7
2017-Jun-25 20:14N 36°41' W 000°44'518.8
2017-Jun-25 19:59N 36°42' W 000°39'1119.0
2017-Jun-25 19:24N 36°45' W 000°25'1119.1
2017-Jun-25 18:50N 36°47' W 000°12'618.8
2017-Jun-25 18:30N 36°48' W 000°04'918.7
2017-Jun-25 18:00N 36°50' E 000°07'918.7
2017-Jun-25 17:30N 36°52' E 000°19'918.6
2017-Jun-25 17:00N 36°54' E 000°30'918.8
2017-Jun-25 16:30N 36°56' E 000°42'918.9
2017-Jun-25 16:00N 36°58' E 000°53'1118.9
2017-Jun-25 15:26N 37°01' E 001°06'1219.0
2017-Jun-25 14:49N 37°03' E 001°21'1619.4
2017-Jun-25 14:00N 37°06' E 001°40'1019.6
2017-Jun-25 13:30N 37°08' E 001°52'1019.5
2017-Jun-25 13:00N 37°10' E 002°04'2619.0
2017-Jun-25 11:38N 37°15' E 002°36'518.9
2017-Jun-25 11:23N 37°16' E 002°42'6218.7
2017-Jun-25 08:05N 37°33' E 003°56'218.9
2017-Jun-25 08:00N 37°33' E 003°58'1018.9
2017-Jun-25 07:29N 37°34' E 004°11'918.9
2017-Jun-25 07:00N 37°35' E 004°22'1019.0
2017-Jun-25 06:30N 37°37' E 004°34'1019.0
2017-Jun-25 05:59N 37°39' E 004°46'1019.4
2017-Jun-25 05:30N 37°40' E 004°58'1019.6
2017-Jun-25 05:00N 37°40' E 005°10'919.3
2017-Jun-25 04:30N 37°40' E 005°22'1019.1
2017-Jun-25 04:00N 37°40' E 005°35'918.9
2017-Jun-25 03:30N 37°40' E 005°46'1018.7
2017-Jun-25 02:57N 37°40' E 005°60'17718.5
2017-Jun-24 17:24N 37°38' E 009°43'818.5
2017-Jun-24 16:59N 37°38' E 009°52'918.6
2017-Jun-24 16:30N 37°38' E 010°03'917.1
2017-Jun-24 15:58N 37°36' E 010°15'2217.8
2017-Jun-24 14:44N 37°16' E 010°25'918.5
2017-Jun-24 14:16N 37°07' E 010°25'45 3.0
2017-Jun-23 23:12N 37°35' E 011°09'210.8
2017-Jun-23 23:00N 37°37' E 011°10'1010.8
2017-Jun-23 22:03N 37°45' E 011°17'010.6
2017-Jun-23 22:00N 37°46' E 011°18'510.5
2017-Jun-23 21:30N 37°50' E 011°22'7310.5
2017-Jun-23 14:32N 38°48' E 012°18'610.9
2017-Jun-23 14:00N 38°53' E 012°23'7311.0
2017-Jun-23 07:21N 39°52' E 013°20'1710.9
2017-Jun-23 05:48N 40°05' E 013°33'511.1
2017-Jun-23 05:22N 40°09' E 013°37'411.3
2017-Jun-23 05:00N 40°12' E 013°40'611.2
2017-Jun-23 04:27N 40°17' E 013°45'511.2
2017-Jun-23 04:00N 40°21' E 013°49'611.1
2017-Jun-23 03:30N 40°25' E 013°54'1510.9
2017-Jun-23 02:08N 40°38' E 014°05'110.6
2017-Jun-23 02:00N 40°39' E 014°06'12 9.8
2017-Jun-23 00:50N 40°48' E 014°15'3 0.5
2017-Jun-22 19:34N 40°50' E 014°17'0 0.0
2017-Jun-22 19:28N 40°50' E 014°17'0 0.0
2017-Jun-22 18:58N 40°50' E 014°17'0 0.0
2017-Jun-22 18:28N 40°50' E 014°17'0 0.3
2017-Jun-22 18:00N 40°50' E 014°17'2 4.4
2017-Jun-22 17:30N 40°48' E 014°17'1 1.3
2017-Jun-22 17:00N 40°48' E 014°16'612.6
2017-Jun-22 16:30N 40°44' E 014°09'815.0
2017-Jun-22 16:00N 40°40' E 014°01'1915.0
2017-Jun-22 14:44N 40°33' E 013°38'315.4
2017-Jun-22 14:31N 40°31' E 013°34'1915.8
2017-Jun-22 13:20N 40°23' E 013°12'816.0
2017-Jun-22 12:49N 40°19' E 013°02'715.8
2017-Jun-22 12:24N 40°16' E 012°55'615.7
2017-Jun-22 12:00N 40°13' E 012°47'6415.9
2017-Jun-22 07:58N 39°45' E 011°32'715.9
2017-Jun-22 07:30N 39°41' E 011°24'815.8
2017-Jun-22 07:00N 39°38' E 011°15'815.9
2017-Jun-22 06:30N 39°34' E 011°05'3916.5
2017-Jun-22 04:10N 39°17' E 010°21'316.5
2017-Jun-22 04:00N 39°16' E 010°18'916.5
2017-Jun-22 03:29N 39°12' E 010°08'816.4
2017-Jun-22 03:01N 39°08' E 009°59'2516.6
2017-Jun-22 01:30N 38°57' E 009°29'916.8
2017-Jun-22 00:56N 38°54' E 009°18'816.6
2017-Jun-22 00:28N 38°52' E 009°08'1016.3
2017-Jun-21 23:51N 38°48' E 008°56'616.3
2017-Jun-21 23:30N 38°47' E 008°49'21912.9
2017-Jun-21 06:31N 37°49' E 004°20'0 9.6
2017-Jun-21 06:29N 37°49' E 004°20'5 9.7
2017-Jun-21 06:00N 37°47' E 004°14'5 9.6
2017-Jun-21 05:30N 37°46' E 004°09'7 9.6
2017-Jun-21 04:50N 37°44' E 004°01'3 9.6
2017-Jun-21 04:30N 37°43' E 003°57'5 9.5
2017-Jun-21 04:00N 37°42' E 003°51'5 9.5
2017-Jun-21 03:30N 37°41' E 003°45'6 9.4
2017-Jun-21 02:52N 37°39' E 003°38'20 9.5
2017-Jun-21 00:48N 37°34' E 003°14'4 9.6
2017-Jun-21 00:21N 37°33' E 003°09'8 9.5
2017-Jun-20 23:29N 37°30' E 002°59'33 9.2
2017-Jun-20 19:55N 37°22' E 002°19'33 9.0
2017-Jun-20 16:12N 37°13' E 001°38'2 9.0
2017-Jun-20 15:57N 37°12' E 001°36'36 9.4
2017-Jun-20 12:07N 37°03' E 000°52'110.2
2017-Jun-20 11:59N 37°02' E 000°51'910.4
2017-Jun-20 11:09N 37°00' E 000°40'1510.2
2017-Jun-20 09:43N 36°56' E 000°23'1010.1
2017-Jun-20 08:41N 36°53' E 000°10'2 9.9
2017-Jun-20 08:26N 36°53' E 000°07'26311.2
2017-Jun-19 09:01N 35°59' W 005°13'016.1
2017-Jun-19 09:00N 35°59' W 005°13'816.1
2017-Jun-19 08:30N 35°58' W 005°23'110 6.4
2017-Jun-18 15:16N 36°11' W 007°38'5015.3
2017-Jun-18 12:01N 36°25' W 008°38'015.8
2017-Jun-18 12:00N 36°25' W 008°38'1315.3
2017-Jun-18 11:09N 36°28' W 008°53'215.2
2017-Jun-18 11:00N 36°29' W 008°56'915.2
2017-Jun-18 10:27N 36°31' W 009°06'715.4
2017-Jun-18 10:00N 36°33' W 009°15'6315.5
2017-Jun-18 05:56N 37°31' W 009°46'716.6
2017-Jun-18 05:30N 37°38' W 009°48'816.8
2017-Jun-18 05:01N 37°46' W 009°50'816.8
2017-Jun-18 04:30N 37°54' W 009°53'816.7
2017-Jun-18 04:01N 38°02' W 009°55'816.9
2017-Jun-18 03:31N 38°10' W 009°57'816.8
2017-Jun-18 03:01N 38°19' W 009°59'816.8
2017-Jun-18 02:31N 38°27' W 010°01'816.6
2017-Jun-18 02:01N 38°35' W 010°04'816.6
2017-Jun-18 01:31N 38°43' W 010°05'816.7
2017-Jun-18 01:00N 38°52' W 010°05'816.7
2017-Jun-18 00:30N 39°00' W 010°05'917.3
2017-Jun-18 00:01N 39°09' W 010°05'917.2
2017-Jun-17 23:31N 39°17' W 010°05'916.6
2017-Jun-17 23:00N 39°26' W 010°05'1116.5
2017-Jun-17 22:20N 39°37' W 010°05'516.5
2017-Jun-17 22:00N 39°42' W 010°05'1217.1
2017-Jun-17 21:18N 39°54' W 010°05'515.9
2017-Jun-17 21:00N 39°59' W 010°05'816.9
2017-Jun-17 20:30N 40°07' W 010°05'816.9
2017-Jun-17 20:01N 40°16' W 010°04'916.9
2017-Jun-17 19:30N 40°24' W 010°04'917.0
2017-Jun-17 19:00N 40°33' W 010°05'816.9
2017-Jun-17 18:30N 40°41' W 010°06'816.8
2017-Jun-17 18:00N 40°49' W 010°06'916.7
2017-Jun-17 17:30N 40°58' W 010°06'816.9
2017-Jun-17 17:00N 41°06' W 010°05'816.9
2017-Jun-17 16:30N 41°15' W 010°05'917.1
2017-Jun-17 16:00N 41°23' W 010°05'917.3
2017-Jun-17 15:30N 41°32' W 010°05'  

Dump ship's entire track history